Time;durP1;ratioP1;P1;durP2;ratioP2;P2;SDS_P1;SDS_P2;PMS_P1;PMS_P2;Temp;Humidity;BMP_temperature;BMP_pressure;BME280_temperature;BME280_humidity;BME280_pressure;Samples;Min_cycle;Max_cycle;Signal;HPM_P1;HPM_P2
2022/03/27 00:00:32;;;;;;;14.43;10.20;;;9.40;99.90;;;;;;5094150;28;20171;-40
2022/03/27 00:02:57;;;;;;;16.10;10.27;;;9.40;99.90;;;;;;5094042;28;20175;-40
2022/03/27 00:05:23;;;;;;;16.53;10.47;;;9.40;99.90;;;;;;5093899;28;20218;-42
2022/03/27 00:07:49;;;;;;;14.53;9.77;;;9.30;99.90;;;;;;5094120;28;20201;-38
2022/03/27 00:10:14;;;;;;;15.67;10.40;;;9.30;99.90;;;;;;5093903;28;20751;-40
2022/03/27 00:12:40;;;;;;;15.97;10.93;;;9.40;99.90;;;;;;5093841;28;20629;-39
2022/03/27 00:15:07;;;;;;;19.23;10.57;;;9.30;99.90;;;;;;5094073;28;20244;-42
2022/03/27 00:17:34;;;;;;;16.03;10.23;;;9.30;99.90;;;;;;5094095;28;20177;-41
2022/03/27 00:20:05;;;;;;;16.03;10.37;;;9.20;99.90;;;;;;5094012;28;20588;-42
2022/03/27 00:22:31;;;;;;;12.60;9.27;;;9.20;99.90;;;;;;5094021;28;20181;-38
2022/03/27 00:24:57;;;;;;;14.20;9.57;;;9.20;99.90;;;;;;5093879;28;20187;-42
2022/03/27 00:27:23;;;;;;;14.77;8.90;;;9.00;99.90;;;;;;5093673;28;20206;-39
2022/03/27 00:29:50;;;;;;;13.70;9.10;;;8.80;99.90;;;;;;5093563;28;20278;-41
2022/03/27 00:32:16;;;;;;;13.03;8.27;;;8.70;99.90;;;;;;5093606;28;20625;-40
2022/03/27 00:34:41;;;;;;;15.20;9.20;;;8.60;99.90;;;;;;5093527;28;20179;-41
2022/03/27 00:37:07;;;;;;;15.30;9.80;;;8.50;99.90;;;;;;5093460;28;20676;-40
2022/03/27 00:39:33;;;;;;;16.63;10.20;;;8.50;99.90;;;;;;5094227;28;20644;-41
2022/03/27 00:41:58;;;;;;;13.13;9.90;;;8.50;99.90;;;;;;5093437;28;20176;-42
2022/03/27 00:44:24;;;;;;;16.50;10.50;;;8.50;99.90;;;;;;5093302;28;20181;-38
2022/03/27 00:46:50;;;;;;;15.00;10.27;;;8.60;99.90;;;;;;5093333;28;20191;-43
2022/03/27 00:49:15;;;;;;;14.00;10.30;;;8.60;99.90;;;;;;5094183;28;20694;-41
2022/03/27 00:51:41;;;;;;;16.47;10.10;;;8.60;99.90;;;;;;5093282;28;20278;-41
2022/03/27 00:54:07;;;;;;;17.27;10.27;;;8.60;99.90;;;;;;5093844;28;20198;-39
2022/03/27 00:56:32;;;;;;;17.07;10.70;;;8.70;99.90;;;;;;5093110;28;20195;-41
2022/03/27 00:58:58;;;;;;;18.70;11.13;;;8.70;99.90;;;;;;5093219;28;20259;-41
2022/03/27 01:01:33;;;;;;;17.87;10.63;;;8.70;99.90;;;;;;5093455;28;20208;-43
2022/03/27 01:03:58;;;;;;;17.97;11.27;;;8.80;99.90;;;;;;5094157;28;20670;-40
2022/03/27 01:06:34;;;;;;;18.10;11.70;;;8.80;99.90;;;;;;5097382;28;20199;-41
2022/03/27 01:11:46;;;;;;;17.13;10.97;;;8.90;99.90;;;;;;5097704;28;20193;-42
2022/03/27 01:14:13;;;;;;;15.90;11.27;;;8.90;99.90;;;;;;5097478;28;20174;-40
2022/03/27 01:16:44;;;;;;;16.13;11.53;;;8.90;99.90;;;;;;5097079;28;20195;-40
2022/03/27 01:19:12;;;;;;;17.20;10.70;;;8.90;99.90;;;;;;5097352;28;20171;-41
2022/03/27 01:21:46;;;;;;;16.87;10.60;;;8.90;99.90;;;;;;5097360;28;20213;-38
2022/03/27 01:24:14;;;;;;;17.83;11.07;;;8.90;99.90;;;;;;5097386;28;20633;-40
2022/03/27 01:26:39;;;;;;;18.67;11.43;;;8.80;99.90;;;;;;5096959;28;20687;-38
2022/03/27 01:29:06;;;;;;;17.03;10.60;;;8.80;99.90;;;;;;5097272;28;20206;-40
2022/03/27 01:31:33;;;;;;;15.67;10.63;;;8.80;99.90;;;;;;5097110;28;20179;-41
2022/03/27 01:33:58;;;;;;;17.37;10.33;;;8.80;99.90;;;;;;5097075;28;20197;-40
2022/03/27 01:36:34;;;;;;;16.53;9.70;;;8.70;99.90;;;;;;5097000;28;20198;-40
2022/03/27 01:39:01;;;;;;;13.90;9.87;;;8.70;99.90;;;;;;5097316;28;20167;-41
2022/03/27 01:41:27;;;;;;;15.03;9.70;;;8.70;99.90;;;;;;5096769;28;20182;-39
2022/03/27 01:43:52;;;;;;;13.77;8.73;;;8.70;99.90;;;;;;5096618;28;20274;-40
2022/03/27 01:46:19;;;;;;;13.67;9.23;;;8.60;99.90;;;;;;5096773;28;20206;-40
2022/03/27 01:48:44;;;;;;;13.87;9.03;;;8.50;99.90;;;;;;5096830;28;20229;-42
2022/03/27 01:51:10;;;;;;;10.77;8.10;;;8.30;99.90;;;;;;5096707;28;20179;-41
2022/03/27 01:53:37;;;;;;;12.27;8.63;;;8.10;99.90;;;;;;5096444;28;20257;-41
2022/03/27 01:56:05;;;;;;;12.47;8.73;;;8.00;99.90;;;;;;5096874;28;20273;-40
2022/03/27 01:58:30;;;;;;;13.80;8.23;;;8.00;99.90;;;;;;5098508;28;20171;-39
2022/03/27 02:00:56;;;;;;;13.87;8.93;;;7.80;99.90;;;;;;5097598;28;20179;-40
2022/03/27 02:03:22;;;;;;;15.40;9.67;;;7.70;99.90;;;;;;5096335;28;20214;-39
2022/03/27 02:05:48;;;;;;;16.27;9.23;;;7.70;99.90;;;;;;5096826;28;20244;-39
2022/03/27 02:08:13;;;;;;;13.50;9.60;;;7.60;99.90;;;;;;5096132;28;20182;-42
2022/03/27 02:10:40;;;;;;;15.93;9.87;;;7.60;99.90;;;;;;5096391;28;20171;-42
2022/03/27 02:13:12;;;;;;;16.83;9.77;;;7.70;99.90;;;;;;5096526;28;20607;-41
2022/03/27 02:15:38;;;;;;;14.37;9.63;;;7.80;99.90;;;;;;5096079;28;20206;-39
2022/03/27 02:18:04;;;;;;;17.10;9.97;;;7.90;99.90;;;;;;5096259;28;20160;-40
2022/03/27 02:20:29;;;;;;;15.40;9.97;;;7.90;99.90;;;;;;5095065;28;20175;-41
2022/03/27 02:22:55;;;;;;;18.83;10.17;;;8.00;99.90;;;;;;5096088;28;20202;-42
2022/03/27 02:25:21;;;;;;;15.13;10.33;;;8.00;99.90;;;;;;5094498;28;20202;-39
2022/03/27 02:27:46;;;;;;;15.03;9.83;;;8.00;99.90;;;;;;5095783;28;20221;-39
2022/03/27 02:30:15;;;;;;;15.97;9.40;;;8.00;99.90;;;;;;5095880;28;20199;-41
2022/03/27 02:32:40;;;;;;;15.63;9.10;;;8.00;99.90;;;;;;5095756;28;20636;-40
2022/03/27 02:35:06;;;;;;;15.07;9.77;;;8.00;99.90;;;;;;5095766;28;20209;-39
2022/03/27 02:37:32;;;;;;;14.33;9.90;;;7.90;99.90;;;;;;5095992;28;20262;-41
2022/03/27 02:39:57;;;;;;;14.63;9.43;;;8.00;99.90;;;;;;5094278;28;20214;-39
2022/03/27 02:42:23;;;;;;;14.67;9.20;;;7.90;99.90;;;;;;5095812;28;20639;-41
2022/03/27 02:44:49;;;;;;;14.73;9.60;;;8.00;99.90;;;;;;5095690;28;20186;-42
2022/03/27 02:47:16;;;;;;;14.23;9.60;;;7.90;99.90;;;;;;5095743;28;20656;-42
2022/03/27 02:49:42;;;;;;;17.53;9.47;;;7.90;99.90;;;;;;5095748;28;20241;-42
2022/03/27 02:52:07;;;;;;;16.40;9.57;;;7.90;99.90;;;;;;5095419;28;20167;-40
2022/03/27 02:54:33;;;;;;;11.73;9.40;;;7.90;99.90;;;;;;5095473;28;20175;-39
2022/03/27 02:56:58;;;;;;;17.03;8.87;;;7.90;99.90;;;;;;5095205;28;20222;-42
2022/03/27 02:59:25;;;;;;;15.17;9.37;;;7.90;99.90;;;;;;5095504;28;20235;-40
2022/03/27 03:01:51;;;;;;;13.10;8.63;;;7.90;99.90;;;;;;5095491;28;20591;-40
2022/03/27 03:04:16;;;;;;;12.40;8.90;;;7.90;99.90;;;;;;5095166;28;20210;-40
2022/03/27 03:06:42;;;;;;;15.30;9.07;;;7.90;99.90;;;;;;5095065;28;20198;-40
2022/03/27 03:09:08;;;;;;;13.60;8.73;;;7.80;99.90;;;;;;5095277;28;20221;-41
2022/03/27 03:11:33;;;;;;;14.03;8.40;;;7.80;99.90;;;;;;5095226;28;20194;-41
2022/03/27 03:13:59;;;;;;;16.23;9.03;;;7.80;99.90;;;;;;5093809;28;20237;-39
2022/03/27 03:16:26;;;;;;;14.60;8.53;;;7.80;99.90;;;;;;5095135;28;20222;-40
2022/03/27 03:18:52;;;;;;;14.87;9.00;;;7.80;99.90;;;;;;5093698;28;20228;-41
2022/03/27 03:21:18;;;;;;;13.93;8.83;;;7.80;99.90;;;;;;5095263;28;20186;-40
2022/03/27 03:23:43;;;;;;;12.67;8.60;;;7.80;99.90;;;;;;5095059;28;20175;-42
2022/03/27 03:26:09;;;;;;;15.43;9.33;;;7.70;99.90;;;;;;5094800;28;20202;-41
2022/03/27 03:28:35;;;;;;;13.90;8.70;;;7.80;99.90;;;;;;5094324;28;20219;-39
2022/03/27 03:31:01;;;;;;;16.37;9.50;;;7.70;99.90;;;;;;5094814;28;20184;-39
2022/03/27 03:33:28;;;;;;;13.87;8.87;;;7.80;99.90;;;;;;5094992;28;20159;-41
2022/03/27 03:35:54;;;;;;;13.80;8.57;;;7.70;99.90;;;;;;5094763;28;20252;-40
2022/03/27 03:38:20;;;;;;;13.00;8.53;;;7.70;99.90;;;;;;5094791;28;20228;-39
2022/03/27 03:40:46;;;;;;;13.80;8.17;;;7.70;99.90;;;;;;5095179;28;20174;-43
2022/03/27 03:43:11;;;;;;;14.80;8.67;;;7.60;99.90;;;;;;5095588;28;20178;-41
2022/03/27 03:45:37;;;;;;;12.83;9.00;;;7.60;99.90;;;;;;5094540;28;20541;-42
2022/03/27 03:48:06;;;;;;;15.40;8.60;;;7.60;99.90;;;;;;5094365;28;20186;-40
2022/03/27 03:50:35;;;;;;;15.07;9.20;;;7.60;99.90;;;;;;5094386;28;20179;-41
2022/03/27 03:53:01;;;;;;;10.30;7.87;;;7.60;99.90;;;;;;5094131;28;20190;-40
2022/03/27 03:55:28;;;;;;;12.87;8.60;;;7.60;99.90;;;;;;5092848;28;20272;-40
2022/03/27 03:57:53;;;;;;;15.07;9.03;;;7.60;99.90;;;;;;5094065;28;20690;-42
2022/03/27 04:00:19;;;;;;;17.63;8.90;;;7.50;99.90;;;;;;5094491;28;20180;-40
2022/03/27 04:02:45;;;;;;;16.60;9.37;;;7.60;99.90;;;;;;5093970;28;20198;-41
2022/03/27 04:05:10;;;;;;;15.20;8.23;;;7.60;99.90;;;;;;5093885;28;20210;-41
2022/03/27 04:07:36;;;;;;;12.57;8.27;;;7.50;99.90;;;;;;5093906;28;20274;-39
2022/03/27 04:10:03;;;;;;;11.30;8.13;;;7.50;99.90;;;;;;5094044;28;20207;-40
2022/03/27 04:12:29;;;;;;;13.50;9.50;;;7.40;99.90;;;;;;5093623;28;20200;-39
2022/03/27 04:14:55;;;;;;;19.73;9.10;;;7.50;99.90;;;;;;5094038;28;20230;-41
2022/03/27 04:17:20;;;;;;;14.93;9.10;;;7.40;99.90;;;;;;5093996;28;20182;-43
2022/03/27 04:19:46;;;;;;;14.47;9.50;;;7.40;99.90;;;;;;5093915;28;20193;-41
2022/03/27 04:22:11;;;;;;;15.77;9.73;;;7.40;99.90;;;;;;5094332;28;20179;-40
2022/03/27 04:24:37;;;;;;;13.03;9.57;;;7.40;99.90;;;;;;5093667;28;20174;-39
2022/03/27 04:27:03;;;;;;;13.77;8.80;;;7.40;99.90;;;;;;5093490;28;20206;-40
2022/03/27 04:29:28;;;;;;;14.97;9.33;;;7.40;99.90;;;;;;5093404;28;20292;-39
2022/03/27 04:31:54;;;;;;;15.83;10.43;;;7.30;99.90;;;;;;5092147;28;20186;-41
2022/03/27 04:34:19;;;;;;;15.30;10.70;;;7.30;99.90;;;;;;5093523;28;20207;-41
2022/03/27 04:36:45;;;;;;;14.80;11.07;;;7.30;99.90;;;;;;5093360;28;20721;-41
2022/03/27 04:39:11;;;;;;;16.03;10.10;;;7.20;99.90;;;;;;5092764;28;20539;-40
2022/03/27 04:41:36;;;;;;;16.90;11.10;;;7.30;99.90;;;;;;5093440;28;20178;-40
2022/03/27 04:44:04;;;;;;;17.70;12.27;;;7.30;99.90;;;;;;5093273;28;20200;-40
2022/03/27 04:46:29;;;;;;;17.13;10.77;;;7.20;99.90;;;;;;5093312;28;20289;-41
2022/03/27 04:48:55;;;;;;;17.47;10.83;;;7.20;99.90;;;;;;5094714;28;20253;-40
2022/03/27 04:51:21;;;;;;;19.03;11.40;;;7.20;99.90;;;;;;5093704;28;20613;-40
2022/03/27 04:53:47;;;;;;;16.60;11.53;;;7.20;99.90;;;;;;5093918;28;20182;-40
2022/03/27 04:56:13;;;;;;;18.73;11.53;;;7.10;99.90;;;;;;5093396;28;20686;-41
2022/03/27 04:58:39;;;;;;;17.63;11.07;;;7.10;99.90;;;;;;5093299;28;20302;-41
2022/03/27 05:01:04;;;;;;;19.33;12.57;;;7.10;99.90;;;;;;5093336;28;20227;-43
2022/03/27 05:03:30;;;;;;;17.13;11.47;;;7.10;99.90;;;;;;5093532;28;20231;-41
2022/03/27 05:05:55;;;;;;;18.13;12.47;;;7.10;99.90;;;;;;5093239;28;20206;-41
2022/03/27 05:08:21;;;;;;;22.97;12.33;;;7.10;99.90;;;;;;5093010;28;20193;-39
2022/03/27 05:10:47;;;;;;;16.77;11.43;;;7.10;99.90;;;;;;5093068;28;20178;-40
2022/03/27 05:13:14;;;;;;;18.13;12.77;;;7.00;99.90;;;;;;5093124;28;20202;-42
2022/03/27 05:15:41;;;;;;;16.63;10.57;;;7.00;99.90;;;;;;5094809;28;20227;-40
2022/03/27 05:18:06;;;;;;;20.73;12.27;;;7.00;99.90;;;;;;5095572;28;20183;-40
2022/03/27 05:20:32;;;;;;;17.80;12.33;;;7.00;99.90;;;;;;5093945;28;20175;-40
2022/03/27 05:23:01;;;;;;;17.47;12.17;;;7.00;99.90;;;;;;5093331;28;20193;-38
2022/03/27 05:25:27;;;;;;;19.00;11.27;;;7.00;99.90;;;;;;5093012;28;20195;-42
2022/03/27 05:27:54;;;;;;;15.80;12.03;;;7.00;99.90;;;;;;5092904;28;20225;-41
2022/03/27 05:30:25;;;;;;;24.03;13.30;;;7.00;99.90;;;;;;5093096;28;20199;-42
2022/03/27 05:32:53;;;;;;;19.90;13.37;;;7.10;99.90;;;;;;5093010;28;20179;-40
2022/03/27 05:35:20;;;;;;;23.93;14.50;;;7.10;99.90;;;;;;5092799;28;20198;-42
2022/03/27 05:37:47;;;;;;;25.13;15.57;;;7.10;99.90;;;;;;5092957;28;20178;-42
2022/03/27 05:40:15;;;;;;;30.20;16.90;;;7.10;99.90;;;;;;5092921;28;20294;-41
2022/03/27 05:42:41;;;;;;;29.10;17.37;;;7.20;99.90;;;;;;5093167;28;20183;-41
2022/03/27 05:45:08;;;;;;;29.00;17.23;;;7.20;99.90;;;;;;5093178;28;20206;-43
2022/03/27 05:47:35;;;;;;;35.67;21.40;;;7.20;99.90;;;;;;5093550;28;20208;-40
2022/03/27 05:50:01;;;;;;;41.93;22.83;;;7.20;99.90;;;;;;5093831;28;20198;-40
2022/03/27 05:52:27;;;;;;;38.37;22.20;;;7.20;99.90;;;;;;5096654;28;20175;-40
2022/03/27 05:54:52;;;;;;;44.77;23.53;;;7.30;99.90;;;;;;5096803;28;20202;-40
2022/03/27 05:57:19;;;;;;;44.57;24.93;;;7.30;99.90;;;;;;5096473;28;20213;-40
2022/03/27 05:59:45;;;;;;;50.00;25.93;;;7.30;99.90;;;;;;5096995;28;20229;-41
2022/03/27 06:02:12;;;;;;;49.40;26.90;;;7.30;99.90;;;;;;5096459;28;20183;-40
2022/03/27 06:04:38;;;;;;;57.37;30.37;;;7.40;99.90;;;;;;5096725;28;20189;-41
2022/03/27 06:07:04;;;;;;;51.43;25.93;;;7.40;99.90;;;;;;5096266;28;20202;-42
2022/03/27 06:09:30;;;;;;;58.30;27.63;;;7.50;99.90;;;;;;5096243;28;20560;-41
2022/03/27 06:11:55;;;;;;;61.00;29.73;;;7.50;99.90;;;;;;5096124;28;20248;-40
2022/03/27 06:14:21;;;;;;;51.80;27.50;;;7.50;99.90;;;;;;5096030;28;20679;-41
2022/03/27 06:16:46;;;;;;;64.13;28.40;;;7.60;99.90;;;;;;5094693;28;20194;-41
2022/03/27 06:19:12;;;;;;;54.43;30.13;;;7.60;99.90;;;;;;5096336;28;20569;-40
2022/03/27 06:21:37;;;;;;;56.43;26.50;;;7.60;99.90;;;;;;5094665;28;20213;-42
2022/03/27 06:24:04;;;;;;;60.27;27.80;;;7.60;99.90;;;;;;5095890;28;20179;-40
2022/03/27 06:26:30;;;;;;;61.87;27.47;;;7.60;99.90;;;;;;5095799;28;20248;-38
2022/03/27 06:28:56;;;;;;;52.43;27.00;;;7.70;99.90;;;;;;5095955;28;20565;-41
2022/03/27 06:31:22;;;;;;;51.97;26.17;;;7.70;99.90;;;;;;5096049;28;20262;-40
2022/03/27 06:33:47;;;;;;;60.87;27.53;;;7.70;99.90;;;;;;5095729;28;20658;-42
2022/03/27 06:36:13;;;;;;;58.37;27.67;;;7.70;99.90;;;;;;5095720;28;20191;-40
2022/03/27 06:38:39;;;;;;;62.47;28.00;;;7.80;99.90;;;;;;5095695;28;20541;-40
2022/03/27 06:41:06;;;;;;;67.67;26.53;;;7.80;99.90;;;;;;5095552;28;20637;-40
2022/03/27 06:43:33;;;;;;;50.30;25.63;;;7.80;99.90;;;;;;5095874;28;20190;-39
2022/03/27 06:45:59;;;;;;;43.97;24.83;;;7.90;99.90;;;;;;5095496;28;20601;-40
2022/03/27 06:48:25;;;;;;;54.77;26.70;;;7.90;99.90;;;;;;5095357;28;20186;-41
2022/03/27 06:50:50;;;;;;;50.87;25.13;;;7.90;99.90;;;;;;5095447;28;20529;-39
2022/03/27 06:53:20;;;;;;;50.27;23.67;;;7.90;99.90;;;;;;5095429;28;20300;-41
2022/03/27 06:55:47;;;;;;;42.57;23.23;;;7.90;99.90;;;;;;5095625;28;20187;-39
2022/03/27 06:58:13;;;;;;;51.00;28.10;;;7.90;99.90;;;;;;5095641;28;20175;-43
2022/03/27 07:03:22;;;;;;;57.53;27.37;;;8.00;99.90;;;;;;5094737;28;20166;-40
2022/03/27 07:05:48;;;;;;;65.87;27.70;;;8.00;99.90;;;;;;5095133;28;20195;-40
2022/03/27 07:08:19;;;;;;;52.37;26.53;;;8.00;99.90;;;;;;5095185;28;20266;-41
2022/03/27 07:10:46;;;;;;;91.73;28.67;;;8.10;99.90;;;;;;5095252;28;20152;-40
2022/03/27 07:13:14;;;;;;;65.13;28.13;;;8.10;99.90;;;;;;5094809;28;20186;-41
2022/03/27 07:15:42;;;;;;;67.43;28.73;;;8.20;99.90;;;;;;5094904;28;20624;-41
2022/03/27 07:18:08;;;;;;;69.70;30.23;;;8.20;99.90;;;;;;5094834;28;20671;-38
2022/03/27 07:20:37;;;;;;;60.00;29.37;;;8.20;99.90;;;;;;5095027;28;20557;-39
2022/03/27 07:23:05;;;;;;;78.00;29.10;;;8.30;99.90;;;;;;5094734;28;20182;-40
2022/03/27 07:25:34;;;;;;;61.00;29.13;;;8.30;99.90;;;;;;5094576;28;20194;-39
2022/03/27 07:28:00;;;;;;;62.07;29.73;;;8.40;99.90;;;;;;5093285;28;20269;-38
2022/03/27 07:30:25;;;;;;;55.63;27.37;;;8.40;99.90;;;;;;5094577;28;20278;-40
2022/03/27 07:32:52;;;;;;;71.53;28.37;;;8.40;99.90;;;;;;5094505;28;20570;-39
2022/03/27 07:35:18;;;;;;;53.93;28.30;;;8.50;99.90;;;;;;5094700;28;20209;-39
2022/03/27 07:37:46;;;;;;;60.03;27.63;;;8.50;99.90;;;;;;5094573;28;20167;-41
2022/03/27 07:40:13;;;;;;;53.63;26.63;;;8.50;99.90;;;;;;5094723;28;20186;-41
2022/03/27 07:42:49;;;;;;;45.87;24.93;;;8.60;99.90;;;;;;5094612;28;20223;-40
2022/03/27 07:45:18;;;;;;;61.07;28.27;;;8.60;99.90;;;;;;5094217;28;20194;-39
2022/03/27 07:47:44;;;;;;;50.53;27.37;;;8.60;99.90;;;;;;5094462;28;20175;-40
2022/03/27 07:50:11;;;;;;;56.43;28.70;;;8.70;99.90;;;;;;5094164;28;20251;-40
2022/03/27 07:52:38;;;;;;;48.37;25.50;;;8.70;99.90;;;;;;5094117;28;20652;-40
2022/03/27 07:55:05;;;;;;;53.40;27.60;;;8.70;99.90;;;;;;5094340;28;20175;-39
2022/03/27 07:57:31;;;;;;;47.00;25.23;;;8.80;99.90;;;;;;5094967;28;20614;-40
2022/03/27 07:59:57;;;;;;;59.50;29.77;;;8.80;99.90;;;;;;5094059;28;20210;-42
2022/03/27 08:02:22;;;;;;;55.57;26.33;;;8.90;99.90;;;;;;5094608;28;20176;-42
2022/03/27 08:04:48;;;;;;;45.23;24.47;;;8.90;99.90;;;;;;5093827;28;20236;-40
2022/03/27 08:07:14;;;;;;;55.63;27.77;;;8.90;99.90;;;;;;5094147;28;20183;-40
2022/03/27 08:09:41;;;;;;;59.63;29.43;;;8.90;99.90;;;;;;5093829;28;20206;-42
2022/03/27 08:12:09;;;;;;;56.40;27.87;;;9.00;99.90;;;;;;5094163;28;20212;-41
2022/03/27 08:14:38;;;;;;;52.10;26.90;;;9.00;99.90;;;;;;5093965;28;20248;-42
2022/03/27 08:17:05;;;;;;;56.17;26.97;;;9.10;99.90;;;;;;5093981;28;20191;-40
2022/03/27 08:19:31;;;;;;;52.83;27.13;;;9.10;99.90;;;;;;5093806;28;20224;-42
2022/03/27 08:21:57;;;;;;;41.83;24.67;;;9.10;99.90;;;;;;5093939;28;20182;-41
2022/03/27 08:24:23;;;;;;;53.20;27.77;;;9.20;99.90;;;;;;5093789;28;20175;-42
2022/03/27 08:26:59;;;;;;;54.93;28.60;;;9.20;99.90;;;;;;5094030;28;20199;-41
2022/03/27 08:29:39;;;;;;;45.80;27.00;;;9.20;99.90;;;;;;5095270;28;20205;-40
2022/03/27 08:32:07;;;;;;;49.87;25.80;;;9.30;99.90;;;;;;5093595;28;20205;-41
2022/03/27 08:34:36;;;;;;;51.77;26.60;;;9.30;99.90;;;;;;5093853;28;20171;-41
2022/03/27 08:37:04;;;;;;;48.17;27.23;;;9.40;99.90;;;;;;5093631;28;20207;-40
2022/03/27 08:39:30;;;;;;;54.20;28.80;;;9.40;99.90;;;;;;5093407;28;20179;-43
2022/03/27 08:41:57;;;;;;;62.57;30.13;;;9.50;99.90;;;;;;5093750;28;20575;-40
2022/03/27 08:44:26;;;;;;;55.77;28.53;;;9.50;99.90;;;;;;5093683;28;20179;-39
2022/03/27 08:46:53;;;;;;;56.60;30.00;;;9.60;99.90;;;;;;5093571;28;20277;-41
2022/03/27 08:49:39;;;;;;;55.47;28.00;;;9.60;99.90;;;;;;5093184;28;20206;-42
2022/03/27 08:52:17;;;;;;;57.93;30.30;;;9.70;99.90;;;;;;5093374;28;20233;-42
2022/03/27 08:54:51;;;;;;;54.60;30.50;;;9.70;99.90;;;;;;5093567;28;20514;-39
2022/03/27 08:57:47;;;;;;;58.00;30.00;;;9.70;99.90;;;;;;5093592;28;20159;-39
2022/03/27 09:00:13;;;;;;;50.10;27.97;;;9.80;99.90;;;;;;5093629;28;20212;-40
2022/03/27 09:02:41;;;;;;;51.23;27.30;;;9.90;99.90;;;;;;5093216;28;20175;-40
2022/03/27 09:05:07;;;;;;;56.93;30.47;;;9.90;99.90;;;;;;5093157;28;20176;-42
2022/03/27 09:07:33;;;;;;;56.30;29.67;;;10.00;99.90;;;;;;5093294;28;20219;-41
2022/03/27 09:09:59;;;;;;;51.70;27.17;;;10.10;99.90;;;;;;5093345;28;20275;-39
2022/03/27 09:12:24;;;;;;;58.43;30.27;;;10.20;99.90;;;;;;5093019;28;20195;-42
2022/03/27 09:14:50;;;;;;;50.63;28.83;;;10.30;99.90;;;;;;5092995;28;20582;-40
2022/03/27 09:17:17;;;;;;;54.43;30.17;;;10.30;99.90;;;;;;5093278;28;20259;-40
2022/03/27 09:19:52;;;;;;;51.57;28.57;;;10.40;99.90;;;;;;5093942;28;20573;-43
2022/03/27 09:22:19;;;;;;;56.07;30.80;;;10.50;99.90;;;;;;5093586;28;20177;-45
2022/03/27 09:25:03;;;;;;;50.67;29.63;;;10.50;99.90;;;;;;5094130;28;20698;-40
2022/03/27 09:27:33;;;;;;;46.17;27.20;;;10.50;99.90;;;;;;5096990;28;20234;-40
2022/03/27 09:30:09;;;;;;;49.77;27.63;;;10.60;99.90;;;;;;5097199;28;20245;-41
2022/03/27 09:32:42;;;;;;;46.60;27.50;;;10.50;99.90;;;;;;5097010;28;20179;-40
2022/03/27 09:35:10;;;;;;;46.97;26.67;;;10.40;99.90;;;;;;5096865;28;20204;-38
2022/03/27 09:37:41;;;;;;;43.17;26.60;;;10.50;99.90;;;;;;5096908;28;20170;-40
2022/03/27 09:40:09;;;;;;;47.83;28.07;;;10.50;99.90;;;;;;5096742;28;20173;-39
2022/03/27 09:42:40;;;;;;;46.27;28.23;;;10.60;99.90;;;;;;5096697;28;20260;-38
2022/03/27 09:45:10;;;;;;;41.77;25.47;;;10.70;99.90;;;;;;5096845;28;20259;-40
2022/03/27 09:47:36;;;;;;;42.80;24.80;;;10.70;99.90;;;;;;5095639;28;20525;-41
2022/03/27 09:50:02;;;;;;;44.87;27.13;;;10.80;99.90;;;;;;5096630;28;20211;-42
2022/03/27 09:52:28;;;;;;;40.63;25.97;;;10.90;99.90;;;;;;5096699;28;20198;-41
2022/03/27 09:55:01;;;;;;;43.03;27.10;;;11.00;99.90;;;;;;5096654;28;20216;-42
2022/03/27 09:57:41;;;;;;;44.37;26.83;;;11.00;99.90;;;;;;5096713;28;20194;-43
2022/03/27 10:00:15;;;;;;;40.07;25.50;;;11.10;99.90;;;;;;5096408;28;20227;-41
2022/03/27 10:02:42;;;;;;;39.67;25.40;;;11.10;99.90;;;;;;5096359;28;20239;-42
2022/03/27 10:05:21;;;;;;;43.03;25.10;;;11.20;99.90;;;;;;5096570;28;20244;-39
2022/03/27 10:07:52;;;;;;;35.33;23.47;;;11.20;99.90;;;;;;5096486;28;20189;-41
2022/03/27 10:10:21;;;;;;;35.77;22.80;;;11.30;99.90;;;;;;5096499;28;20217;-42
2022/03/27 10:12:49;;;;;;;36.90;24.10;;;11.40;99.90;;;;;;5096292;28;20194;-40
2022/03/27 10:15:23;;;;;;;33.40;22.27;;;11.40;99.90;;;;;;5096184;28;20194;-39
2022/03/27 10:17:56;;;;;;;34.03;24.53;;;11.40;99.90;;;;;;5096484;28;20174;-40
2022/03/27 10:20:25;;;;;;;34.27;21.87;;;11.50;99.90;;;;;;5096394;28;20167;-42
2022/03/27 10:23:07;;;;;;;33.53;22.03;;;11.60;99.90;;;;;;5094844;28;20178;-41
2022/03/27 10:25:50;;;;;;;37.00;24.50;;;11.80;99.90;;;;;;5096184;28;20206;-39
2022/03/27 10:28:18;;;;;;;35.93;24.07;;;11.80;99.90;;;;;;5096297;28;20155;-42
2022/03/27 10:30:44;;;;;;;36.60;24.97;;;11.80;99.90;;;;;;5095891;28;20186;-42
2022/03/27 10:33:11;;;;;;;37.33;23.03;;;11.80;99.90;;;;;;5095718;28;20174;-37
2022/03/27 10:36:14;;;;;;;34.30;23.70;;;11.80;99.90;;;;;;5096062;28;20219;-42
2022/03/27 10:38:47;;;;;;;33.50;22.63;;;11.90;99.90;;;;;;5095757;28;20179;-40
2022/03/27 10:41:47;;;;;;;36.73;23.20;;;11.90;99.90;;;;;;5096110;28;20625;-40
2022/03/27 10:44:18;;;;;;;38.87;24.90;;;12.10;99.90;;;;;;5095892;28;20167;-41
2022/03/27 10:47:04;;;;;;;51.00;28.33;;;12.40;99.90;;;;;;5095717;28;20222;-40
2022/03/27 10:49:30;;;;;;;51.07;28.67;;;12.40;99.90;;;;;;5095825;28;20209;-40
2022/03/27 10:52:04;;;;;;;51.73;30.93;;;12.60;99.90;;;;;;5095325;28;20183;-39
2022/03/27 10:54:30;;;;;;;51.93;31.97;;;12.60;99.90;;;;;;5095726;28;20170;-42
2022/03/27 10:56:56;;;;;;;48.50;29.23;;;12.60;99.90;;;;;;5095831;28;20195;-41
2022/03/27 10:59:27;;;;;;;48.50;30.73;;;12.60;99.90;;;;;;5095593;28;20193;-39
2022/03/27 11:01:54;;;;;;;51.20;29.40;;;12.70;99.90;;;;;;5095225;28;20212;-40
2022/03/27 11:04:21;;;;;;;48.37;28.60;;;12.70;99.90;;;;;;5095156;28;20171;-42
2022/03/27 11:06:52;;;;;;;44.10;27.53;;;12.70;99.90;;;;;;5095367;28;20610;-40
2022/03/27 11:09:34;;;;;;;42.23;25.97;;;12.70;99.90;;;;;;5095311;28;20210;-41
2022/03/27 11:12:01;;;;;;;44.90;27.43;;;12.70;99.90;;;;;;5093660;28;20191;-41
2022/03/27 11:14:52;;;;;;;40.57;26.70;;;12.80;99.90;;;;;;5095249;28;20232;-41
2022/03/27 11:17:30;;;;;;;43.53;28.43;;;13.00;99.90;;;;;;5093619;28;20175;-40
2022/03/27 11:19:55;;;;;;;39.03;25.53;;;13.10;99.90;;;;;;5095209;28;20559;-42
2022/03/27 11:22:53;;;;;;;43.17;28.10;;;13.10;99.90;;;;;;5095099;28;20275;-40
2022/03/27 11:25:36;;;;;;;42.50;28.17;;;13.10;99.90;;;;;;5095041;28;20199;-41
2022/03/27 11:28:02;;;;;;;41.97;28.27;;;13.20;99.90;;;;;;5094739;28;20262;-40
2022/03/27 11:30:28;;;;;;;49.57;29.47;;;13.30;99.90;;;;;;5094884;28;20216;-40
2022/03/27 11:33:13;;;;;;;49.70;28.83;;;13.50;99.90;;;;;;5094699;28;20576;-43
2022/03/27 11:35:40;;;;;;;50.60;30.80;;;13.70;99.90;;;;;;5094574;28;20197;-40
2022/03/27 11:38:23;;;;;;;57.90;33.30;;;13.80;99.90;;;;;;5094655;28;20163;-42
2022/03/27 11:40:49;;;;;;;58.13;33.10;;;13.90;99.90;;;;;;5094812;28;20151;-41
2022/03/27 11:43:29;;;;;;;59.00;34.10;;;13.80;99.90;;;;;;5094667;28;20578;-42
2022/03/27 11:45:56;;;;;;;50.97;31.97;;;13.90;99.90;;;;;;5094556;28;20699;-40
2022/03/27 11:48:22;;;;;;;56.83;30.53;;;14.10;99.90;;;;;;5094110;28;20591;-41
2022/03/27 11:50:48;;;;;;;63.17;36.73;;;14.20;99.90;;;;;;5094578;28;20263;-41
2022/03/27 11:53:14;;;;;;;61.67;34.20;;;14.30;99.90;;;;;;5094272;28;20211;-40
2022/03/27 11:55:39;;;;;;;69.47;37.97;;;14.40;99.90;;;;;;5092794;28;20209;-42
2022/03/27 11:58:07;;;;;;;66.87;39.07;;;14.50;99.90;;;;;;5094200;28;20229;-40
2022/03/27 12:00:39;;;;;;;67.70;38.37;;;14.50;99.90;;;;;;5094433;28;20179;-42
2022/03/27 12:03:14;;;;;;;68.67;38.07;;;14.50;99.90;;;;;;5094262;28;20309;-42
2022/03/27 12:05:41;;;;;;;71.20;41.13;;;14.70;99.90;;;;;;5094594;28;20220;-40
2022/03/27 12:08:07;;;;;;;76.30;41.40;;;14.70;99.90;;;;;;5095084;28;20171;-41
2022/03/27 12:10:41;;;;;;;85.47;46.43;;;14.80;99.90;;;;;;5095265;28;20560;-42
2022/03/27 12:13:08;;;;;;;78.77;44.57;;;14.90;99.90;;;;;;5094939;28;20187;-42
2022/03/27 12:15:40;;;;;;;91.30;48.97;;;15.00;99.90;;;;;;5092934;28;20610;-41
2022/03/27 12:18:06;;;;;;;91.20;48.70;;;15.00;99.90;;;;;;5093841;28;20179;-40
2022/03/27 12:20:45;;;;;;;96.97;50.07;;;15.00;99.90;;;;;;5093856;28;20178;-42
2022/03/27 12:23:38;;;;;;;103.37;55.50;;;15.10;99.90;;;;;;5094258;28;20162;-42
2022/03/27 12:29:40;;;;;;;101.47;57.40;;;15.30;99.90;;;;;;5091191;28;20621;-42
2022/03/27 12:31:59;;;;;;;90.27;49.50;;;15.40;99.90;;;;;;5093664;28;20178;-41
2022/03/27 12:34:25;;;;;;;102.50;53.27;;;15.50;99.90;;;;;;5093706;28;20175;-41
2022/03/27 12:37:14;;;;;;;100.63;53.17;;;15.50;99.90;;;;;;5094596;28;20195;-41
2022/03/27 12:39:50;;;;;;;100.00;56.17;;;15.50;99.90;;;;;;5093913;28;20171;-41
2022/03/27 12:42:36;;;;;;;103.77;54.57;;;15.50;99.90;;;;;;5093745;28;20170;-41
2022/03/27 12:45:27;;;;;;;85.70;48.77;;;15.60;99.90;;;;;;5093766;28;20167;-41
2022/03/27 12:48:03;;;;;;;93.37;52.10;;;15.80;99.90;;;;;;5093776;28;20171;-39
2022/03/27 12:50:37;;;;;;;94.07;52.90;;;16.00;99.90;;;;;;5093757;28;20222;-40